Time;durP1;ratioP1;P1;durP2;ratioP2;P2;SDS_P1;SDS_P2;PMS_P1;PMS_P2;Temp;Humidity;BMP_temperature;BMP_pressure;BME280_temperature;BME280_humidity;BME280_pressure;Samples;Min_cycle;Max_cycle;Signal;HPM_P1;HPM_P2
2021/07/13 00:01:50;;;;;;;;;;;20.30;64.80;;;;;;493626;242;1140;-43
2021/07/13 00:03:53;;;;;;;;;;;20.30;64.90;;;;;;493504;242;1289;-43
2021/07/13 00:05:53;;;;;;;;;;;20.30;65.00;;;;;;493092;242;2338;-43
2021/07/13 00:07:55;;;;;;;;;;;20.30;64.90;;;;;;493621;242;1144;-44
2021/07/13 00:09:56;;;;;;;;;;;20.30;65.00;;;;;;493149;242;1081;-43
2021/07/13 00:11:58;;;;;;;;;;;20.30;65.00;;;;;;493524;242;1350;-43
2021/07/13 00:13:58;;;;;;;;;;;20.30;65.00;;;;;;493216;241;2364;-43
2021/07/13 00:16:00;;;;;;;;;;;20.30;65.00;;;;;;493513;242;2132;-43
2021/07/13 00:18:01;;;;;;;;;;;20.30;65.00;;;;;;493198;242;1078;-43
2021/07/13 00:20:02;;;;;;;;;;;20.40;65.00;;;;;;493241;242;1258;-44
2021/07/13 00:22:04;;;;;;;;;;;20.30;64.90;;;;;;493322;242;1259;-43
2021/07/13 00:24:05;;;;;;;;;;;20.30;65.10;;;;;;493189;242;1037;-43
2021/07/13 00:26:06;;;;;;;;;;;20.30;65.10;;;;;;493593;242;1456;-44
2021/07/13 00:28:08;;;;;;;;;;;20.30;65.00;;;;;;493206;242;1237;-43
2021/07/13 00:30:09;;;;;;;;;;;20.30;64.90;;;;;;493163;242;1059;-44
2021/07/13 00:32:10;;;;;;;;;;;20.30;65.00;;;;;;493379;242;1133;-44
2021/07/13 00:34:11;;;;;;;;;;;20.30;65.00;;;;;;493510;242;1188;-44
2021/07/13 00:36:13;;;;;;;;;;;20.30;65.00;;;;;;493611;242;2327;-44
2021/07/13 00:38:14;;;;;;;;;;;20.30;65.00;;;;;;493670;242;1169;-44
2021/07/13 00:40:15;;;;;;;;;;;20.30;64.90;;;;;;493178;242;1045;-43
2021/07/13 00:42:17;;;;;;;;;;;20.30;64.90;;;;;;493519;242;1456;-43
2021/07/13 00:44:20;;;;;;;;;;;20.30;64.90;;;;;;493618;242;1051;-44
2021/07/13 00:46:20;;;;;;;;;;;20.30;64.90;;;;;;493069;241;2136;-43
2021/07/13 00:48:21;;;;;;;;;;;20.30;65.00;;;;;;493165;242;1236;-44
2021/07/13 00:50:22;;;;;;;;;;;20.30;65.00;;;;;;493248;242;1245;-44
2021/07/13 00:52:24;;;;;;;;;;;20.40;64.90;;;;;;493140;242;1116;-44
2021/07/13 00:54:25;;;;;;;;;;;20.30;64.90;;;;;;493656;242;1033;-44
2021/07/13 00:56:26;;;;;;;;;;;20.30;65.00;;;;;;493143;242;2199;-43
2021/07/13 00:58:28;;;;;;;;;;;20.30;65.00;;;;;;493538;242;1031;-44
2021/07/13 01:00:29;;;;;;;;;;;20.30;64.90;;;;;;493225;242;1334;-43
2021/07/13 01:02:31;;;;;;;;;;;20.30;65.00;;;;;;493337;242;1184;-44
2021/07/13 01:04:32;;;;;;;;;;;20.30;65.00;;;;;;493466;241;2244;-43
2021/07/13 01:06:33;;;;;;;;;;;20.30;65.00;;;;;;493121;242;1323;-43
2021/07/13 01:08:35;;;;;;;;;;;20.30;65.00;;;;;;493720;242;998;-43
2021/07/13 01:10:36;;;;;;;;;;;20.30;65.00;;;;;;493579;242;1095;-43
2021/07/13 01:12:37;;;;;;;;;;;20.30;64.90;;;;;;493101;242;1154;-43
2021/07/13 01:14:39;;;;;;;;;;;20.30;65.00;;;;;;493142;242;1082;-43
2021/07/13 01:16:40;;;;;;;;;;;20.30;65.00;;;;;;493288;242;2112;-43
2021/07/13 01:18:41;;;;;;;;;;;20.30;65.00;;;;;;493628;242;1063;-43
2021/07/13 01:20:43;;;;;;;;;;;20.30;65.00;;;;;;493201;242;1177;-43
2021/07/13 01:22:44;;;;;;;;;;;20.30;65.00;;;;;;493121;242;1229;-43
2021/07/13 01:24:45;;;;;;;;;;;20.30;65.10;;;;;;493617;242;1023;-43
2021/07/13 01:26:47;;;;;;;;;;;20.30;65.00;;;;;;493529;242;1220;-44
2021/07/13 01:28:49;;;;;;;;;;;20.30;65.00;;;;;;493660;242;1073;-44
2021/07/13 01:30:49;;;;;;;;;;;20.30;65.10;;;;;;493233;241;1579;-43
2021/07/13 01:32:51;;;;;;;;;;;20.30;65.10;;;;;;493640;242;1197;-43
2021/07/13 01:34:54;;;;;;;;;;;20.30;65.10;;;;;;493143;242;1165;-43
2021/07/13 01:36:54;;;;;;;;;;;20.30;65.00;;;;;;493245;241;2310;-43
2021/07/13 01:38:55;;;;;;;;;;;20.30;64.90;;;;;;493635;242;1006;-44
2021/07/13 01:40:57;;;;;;;;;;;20.30;65.10;;;;;;493240;242;1273;-44
2021/07/13 01:42:58;;;;;;;;;;;20.30;65.10;;;;;;493174;242;1150;-43
2021/07/13 01:45:00;;;;;;;;;;;20.30;65.10;;;;;;493680;242;1047;-44
2021/07/13 01:47:01;;;;;;;;;;;20.30;65.10;;;;;;493152;242;1247;-43
2021/07/13 01:49:02;;;;;;;;;;;20.30;65.10;;;;;;493605;242;1206;-43
2021/07/13 01:51:04;;;;;;;;;;;20.30;65.10;;;;;;493229;242;1205;-44
2021/07/13 01:53:05;;;;;;;;;;;20.30;65.10;;;;;;493643;242;1168;-44
2021/07/13 01:55:06;;;;;;;;;;;20.30;65.10;;;;;;493175;242;2194;-44
2021/07/13 01:57:08;;;;;;;;;;;20.30;65.10;;;;;;493119;242;1202;-44
2021/07/13 01:59:09;;;;;;;;;;;20.30;65.10;;;;;;493173;242;1114;-44
2021/07/13 02:01:10;;;;;;;;;;;20.30;65.10;;;;;;493599;242;1047;-44
2021/07/13 02:03:12;;;;;;;;;;;20.30;65.10;;;;;;493216;242;1034;-44
2021/07/13 02:05:13;;;;;;;;;;;20.30;65.10;;;;;;493311;242;1131;-43
2021/07/13 02:07:14;;;;;;;;;;;20.30;65.10;;;;;;493082;242;1075;-43
2021/07/13 02:09:16;;;;;;;;;;;20.30;65.10;;;;;;493173;242;1068;-44
2021/07/13 02:11:17;;;;;;;;;;;20.30;65.10;;;;;;493591;242;1196;-44
2021/07/13 02:13:18;;;;;;;;;;;20.30;65.10;;;;;;493185;242;1102;-43
2021/07/13 02:15:20;;;;;;;;;;;20.30;65.00;;;;;;493637;242;2128;-43
2021/07/13 02:17:21;;;;;;;;;;;20.30;65.00;;;;;;493579;242;1052;-43
2021/07/13 02:19:22;;;;;;;;;;;20.30;65.10;;;;;;493218;242;1130;-43
2021/07/13 02:21:23;;;;;;;;;;;20.30;65.10;;;;;;493206;242;1172;-43
2021/07/13 02:23:25;;;;;;;;;;;20.30;65.10;;;;;;493211;242;1053;-43
2021/07/13 02:25:26;;;;;;;;;;;20.30;65.10;;;;;;493601;241;1075;-44
2021/07/13 02:27:30;;;;;;;;;;;20.30;65.10;;;;;;493134;242;1058;-44
2021/07/13 02:29:29;;;;;;;;;;;20.30;65.10;;;;;;493107;241;2103;-44
2021/07/13 02:31:31;;;;;;;;;;;20.30;65.20;;;;;;493421;241;1052;-43
2021/07/13 02:33:32;;;;;;;;;;;20.30;65.20;;;;;;493625;242;1095;-44
2021/07/13 02:35:33;;;;;;;;;;;20.30;65.10;;;;;;493348;242;2160;-43
2021/07/13 02:37:35;;;;;;;;;;;20.30;65.20;;;;;;493585;238;1220;-44
2021/07/13 02:39:38;;;;;;;;;;;20.30;65.10;;;;;;493670;242;1046;-43
2021/07/13 02:41:37;;;;;;;;;;;20.30;65.10;;;;;;493325;241;2100;-43
2021/07/13 02:43:38;;;;;;;;;;;20.30;65.10;;;;;;493454;242;1149;-43
2021/07/13 02:45:40;;;;;;;;;;;20.30;65.10;;;;;;493541;242;1245;-44
2021/07/13 02:47:41;;;;;;;;;;;20.30;65.10;;;;;;493307;242;1309;-43
2021/07/13 02:49:45;;;;;;;;;;;20.30;65.20;;;;;;493223;242;1079;-43
2021/07/13 02:51:45;;;;;;;;;;;20.30;65.10;;;;;;492918;242;2109;-43
2021/07/13 02:53:47;;;;;;;;;;;20.30;65.10;;;;;;493595;242;1035;-43
2021/07/13 02:55:48;;;;;;;;;;;20.30;65.10;;;;;;493417;242;2184;-43
2021/07/13 02:57:50;;;;;;;;;;;20.30;65.00;;;;;;493572;242;1689;-43
2021/07/13 02:59:51;;;;;;;;;;;20.30;65.10;;;;;;493456;242;1109;-43
2021/07/13 03:01:52;;;;;;;;;;;20.30;65.20;;;;;;493381;242;1523;-44
2021/07/13 03:03:54;;;;;;;;;;;20.30;65.10;;;;;;493138;242;1618;-44
2021/07/13 03:05:55;;;;;;;;;;;20.30;65.10;;;;;;493486;242;1140;-43
2021/07/13 03:07:56;;;;;;;;;;;20.30;65.10;;;;;;493214;242;1531;-43
2021/07/13 03:09:58;;;;;;;;;;;20.30;65.00;;;;;;493208;242;1113;-44
2021/07/13 03:11:59;;;;;;;;;;;20.40;65.10;;;;;;493534;242;1108;-44
2021/07/13 03:14:00;;;;;;;;;;;20.30;65.00;;;;;;493650;242;1100;-43
2021/07/13 03:16:02;;;;;;;;;;;20.30;65.10;;;;;;493475;242;2195;-43
2021/07/13 03:18:03;;;;;;;;;;;20.30;65.10;;;;;;493398;242;1143;-44
2021/07/13 03:20:04;;;;;;;;;;;20.30;65.10;;;;;;493302;242;1062;-44
2021/07/13 03:22:06;;;;;;;;;;;20.30;65.10;;;;;;493245;242;1193;-43
2021/07/13 03:24:07;;;;;;;;;;;20.30;65.00;;;;;;493713;242;1137;-43
2021/07/13 03:26:08;;;;;;;;;;;20.30;65.00;;;;;;493606;242;1140;-43
2021/07/13 03:28:09;;;;;;;;;;;20.40;65.10;;;;;;493541;242;1109;-44
2021/07/13 03:30:11;;;;;;;;;;;20.30;65.10;;;;;;493624;242;1116;-43
2021/07/13 03:32:12;;;;;;;;;;;20.30;65.10;;;;;;493540;242;1228;-44
2021/07/13 03:34:13;;;;;;;;;;;20.30;65.00;;;;;;493655;241;1011;-43
2021/07/13 03:36:15;;;;;;;;;;;20.30;65.00;;;;;;493423;242;2250;-44
2021/07/13 03:38:16;;;;;;;;;;;20.30;65.00;;;;;;493279;242;1081;-43
2021/07/13 03:40:17;;;;;;;;;;;20.30;65.00;;;;;;493207;242;1040;-44
2021/07/13 03:42:19;;;;;;;;;;;20.30;65.10;;;;;;493047;242;1262;-43
2021/07/13 03:44:20;;;;;;;;;;;20.30;65.10;;;;;;493655;242;1044;-44
2021/07/13 03:46:21;;;;;;;;;;;20.40;65.00;;;;;;493628;242;1459;-43
2021/07/13 03:48:23;;;;;;;;;;;20.30;65.00;;;;;;493665;242;1118;-44
2021/07/13 03:50:24;;;;;;;;;;;20.30;65.10;;;;;;493169;242;1070;-43
2021/07/13 03:52:25;;;;;;;;;;;20.40;65.10;;;;;;493137;242;1478;-44
2021/07/13 03:54:27;;;;;;;;;;;20.30;65.10;;;;;;493712;242;1004;-44
2021/07/13 03:56:28;;;;;;;;;;;20.30;65.10;;;;;;493550;242;2198;-44
2021/07/13 03:58:29;;;;;;;;;;;20.40;65.10;;;;;;493671;242;1082;-43
2021/07/13 04:00:32;;;;;;;;;;;20.40;65.10;;;;;;493668;242;1095;-44
2021/07/13 04:02:33;;;;;;;;;;;20.30;65.10;;;;;;493141;242;1211;-43
2021/07/13 04:04:34;;;;;;;;;;;20.40;65.10;;;;;;493679;242;1071;-43
2021/07/13 04:06:36;;;;;;;;;;;20.40;65.10;;;;;;493304;241;1410;-44
2021/07/13 04:08:37;;;;;;;;;;;20.30;65.10;;;;;;493602;242;1061;-43
2021/07/13 04:10:38;;;;;;;;;;;20.30;65.10;;;;;;493600;242;1180;-43
2021/07/13 04:12:39;;;;;;;;;;;20.40;65.10;;;;;;493494;242;1322;-43
2021/07/13 04:14:41;;;;;;;;;;;20.30;65.00;;;;;;493206;242;1048;-43
2021/07/13 04:16:42;;;;;;;;;;;20.40;64.90;;;;;;493119;242;2184;-44
2021/07/13 04:18:43;;;;;;;;;;;20.30;65.00;;;;;;493604;242;1053;-43
2021/07/13 04:20:45;;;;;;;;;;;20.40;65.10;;;;;;493540;242;1082;-44
2021/07/13 04:22:46;;;;;;;;;;;20.40;65.10;;;;;;493115;242;1195;-44
2021/07/13 04:24:47;;;;;;;;;;;20.40;65.10;;;;;;493152;242;1104;-44
2021/07/13 04:26:49;;;;;;;;;;;20.40;65.00;;;;;;493141;242;1341;-43
2021/07/13 04:28:50;;;;;;;;;;;20.30;65.10;;;;;;493141;242;1214;-43
2021/07/13 04:30:51;;;;;;;;;;;20.30;65.10;;;;;;493511;242;1151;-43
2021/07/13 04:32:53;;;;;;;;;;;20.30;65.10;;;;;;493102;242;1272;-44
2021/07/13 04:34:54;;;;;;;;;;;20.30;65.20;;;;;;493130;242;981;-44
2021/07/13 04:36:55;;;;;;;;;;;20.30;65.10;;;;;;493109;242;2507;-44
2021/07/13 04:38:57;;;;;;;;;;;20.30;65.00;;;;;;493137;242;1078;-44
2021/07/13 04:40:58;;;;;;;;;;;20.40;65.00;;;;;;493077;242;1123;-43
2021/07/13 04:42:59;;;;;;;;;;;20.40;65.00;;;;;;493428;242;1096;-43
2021/07/13 04:45:01;;;;;;;;;;;20.30;65.10;;;;;;493546;242;1065;-43
2021/07/13 04:47:02;;;;;;;;;;;20.30;65.00;;;;;;492859;242;1337;-44
2021/07/13 04:49:03;;;;;;;;;;;20.30;65.10;;;;;;493057;242;1101;-43
2021/07/13 04:51:05;;;;;;;;;;;20.30;65.00;;;;;;493347;242;1299;-44
2021/07/13 04:53:06;;;;;;;;;;;20.40;65.10;;;;;;493058;242;1115;-44
2021/07/13 04:55:07;;;;;;;;;;;20.30;65.10;;;;;;493407;242;1083;-43
2021/07/13 04:57:08;;;;;;;;;;;20.40;65.10;;;;;;492998;242;2198;-44
2021/07/13 04:59:10;;;;;;;;;;;20.30;65.10;;;;;;493064;242;1041;-43
2021/07/13 05:01:11;;;;;;;;;;;20.30;65.10;;;;;;493457;242;1348;-44
2021/07/13 05:03:12;;;;;;;;;;;20.30;65.20;;;;;;493364;242;1075;-44
2021/07/13 05:05:14;;;;;;;;;;;20.30;65.30;;;;;;492976;242;1033;-43
2021/07/13 05:07:16;;;;;;;;;;;20.30;65.30;;;;;;492971;238;1315;-43
2021/07/13 05:09:17;;;;;;;;;;;20.30;65.30;;;;;;493238;242;1124;-43
2021/07/13 05:11:18;;;;;;;;;;;20.30;65.20;;;;;;493228;242;1210;-43
2021/07/13 05:13:20;;;;;;;;;;;20.30;65.10;;;;;;492936;242;1225;-44
2021/07/13 05:15:21;;;;;;;;;;;20.30;65.20;;;;;;492937;242;1113;-43
2021/07/13 05:17:22;;;;;;;;;;;20.40;65.10;;;;;;493282;242;2191;-43
2021/07/13 05:19:24;;;;;;;;;;;20.30;65.10;;;;;;493073;242;1086;-43
2021/07/13 05:21:25;;;;;;;;;;;20.40;65.10;;;;;;493031;242;1127;-43
2021/07/13 05:23:26;;;;;;;;;;;20.40;65.10;;;;;;492868;242;1296;-43
2021/07/13 05:25:28;;;;;;;;;;;20.30;65.10;;;;;;493040;242;1086;-43
2021/07/13 05:27:29;;;;;;;;;;;20.30;65.10;;;;;;492886;242;1259;-44
2021/07/13 05:29:32;;;;;;;;;;;20.30;65.10;;;;;;492927;242;1062;-44
2021/07/13 05:31:33;;;;;;;;;;;20.30;65.10;;;;;;493121;242;2003;-43
2021/07/13 05:33:34;;;;;;;;;;;20.30;65.10;;;;;;492970;242;1229;-43
2021/07/13 05:35:35;;;;;;;;;;;20.40;65.10;;;;;;492917;242;1107;-43
2021/07/13 05:37:37;;;;;;;;;;;20.30;65.10;;;;;;492810;237;2187;-43
2021/07/13 05:39:38;;;;;;;;;;;20.30;65.10;;;;;;492882;242;1146;-43
2021/07/13 05:41:40;;;;;;;;;;;20.30;65.10;;;;;;492966;242;1182;-43
2021/07/13 05:43:41;;;;;;;;;;;20.30;65.20;;;;;;492797;242;1060;-43
2021/07/13 05:45:42;;;;;;;;;;;20.30;65.10;;;;;;492626;242;1067;-43
2021/07/13 05:47:44;;;;;;;;;;;20.40;65.10;;;;;;492705;242;1102;-44
2021/07/13 05:49:45;;;;;;;;;;;20.30;65.10;;;;;;492787;242;1373;-43
2021/07/13 05:51:46;;;;;;;;;;;20.30;65.10;;;;;;492662;242;1221;-44
2021/07/13 05:53:48;;;;;;;;;;;20.30;65.20;;;;;;492790;242;1173;-43
2021/07/13 05:55:49;;;;;;;;;;;20.30;65.10;;;;;;493032;242;1138;-44
2021/07/13 05:57:50;;;;;;;;;;;20.40;65.10;;;;;;492807;242;2190;-43
2021/07/13 05:59:52;;;;;;;;;;;20.30;65.10;;;;;;492725;242;1060;-44
2021/07/13 06:01:53;;;;;;;;;;;20.30;65.10;;;;;;492560;242;1273;-44
2021/07/13 06:03:54;;;;;;;;;;;20.30;65.20;;;;;;492600;242;1349;-44
2021/07/13 06:05:55;;;;;;;;;;;20.30;65.10;;;;;;492532;242;1215;-44
2021/07/13 06:07:57;;;;;;;;;;;20.30;65.10;;;;;;492952;242;1176;-43
2021/07/13 06:09:58;;;;;;;;;;;20.30;65.10;;;;;;492716;242;1099;-43
2021/07/13 06:12:00;;;;;;;;;;;20.30;65.10;;;;;;492631;242;1511;-43
2021/07/13 06:14:01;;;;;;;;;;;20.30;65.10;;;;;;492749;242;1202;-44
2021/07/13 06:16:02;;;;;;;;;;;20.40;65.10;;;;;;492546;242;1531;-43
2021/07/13 06:18:04;;;;;;;;;;;20.40;65.10;;;;;;492765;242;2191;-43
2021/07/13 06:20:05;;;;;;;;;;;20.40;65.10;;;;;;492665;242;1074;-43
2021/07/13 06:22:06;;;;;;;;;;;20.40;65.20;;;;;;492477;242;1257;-43
2021/07/13 06:24:08;;;;;;;;;;;20.30;65.10;;;;;;492444;242;1209;-43
2021/07/13 06:26:09;;;;;;;;;;;20.30;65.10;;;;;;492546;242;1388;-43
2021/07/13 06:28:10;;;;;;;;;;;20.30;65.10;;;;;;492739;242;1285;-43
2021/07/13 06:30:13;;;;;;;;;;;20.40;65.10;;;;;;492530;242;1169;-43
2021/07/13 06:32:13;;;;;;;;;;;20.40;65.10;;;;;;492608;242;2089;-43
2021/07/13 06:34:15;;;;;;;;;;;20.40;65.10;;;;;;492589;242;1084;-44
2021/07/13 06:36:16;;;;;;;;;;;20.30;65.10;;;;;;492758;242;1257;-44
2021/07/13 06:38:17;;;;;;;;;;;20.30;65.10;;;;;;492506;242;2207;-44
2021/07/13 06:40:19;;;;;;;;;;;20.30;65.20;;;;;;492355;242;1265;-43
2021/07/13 06:42:20;;;;;;;;;;;20.30;65.30;;;;;;492460;242;1132;-43
2021/07/13 06:44:21;;;;;;;;;;;20.30;65.20;;;;;;492474;242;1147;-44
2021/07/13 06:46:23;;;;;;;;;;;20.30;65.20;;;;;;492393;242;1491;-44
2021/07/13 06:48:24;;;;;;;;;;;20.30;65.10;;;;;;492444;242;1075;-43
2021/07/13 06:50:25;;;;;;;;;;;20.40;65.10;;;;;;492400;242;1222;-43
2021/07/13 06:52:26;;;;;;;;;;;20.30;65.20;;;;;;492293;242;1209;-43
2021/07/13 06:54:28;;;;;;;;;;;20.30;65.30;;;;;;492440;242;1528;-43
2021/07/13 06:56:29;;;;;;;;;;;20.30;65.20;;;;;;492413;242;2043;-43
2021/07/13 06:58:30;;;;;;;;;;;20.30;65.20;;;;;;492901;242;2199;-43
2021/07/13 07:00:32;;;;;;;;;;;20.40;65.10;;;;;;492306;242;1192;-44
2021/07/13 07:02:33;;;;;;;;;;;20.30;65.20;;;;;;492431;242;1099;-44
2021/07/13 07:04:35;;;;;;;;;;;20.30;65.30;;;;;;492437;242;1114;-43
2021/07/13 07:06:36;;;;;;;;;;;20.30;65.10;;;;;;492437;242;1486;-43
2021/07/13 07:08:37;;;;;;;;;;;20.30;65.10;;;;;;492480;242;1171;-43
2021/07/13 07:10:39;;;;;;;;;;;20.30;65.10;;;;;;492471;241;1281;-44
2021/07/13 07:12:40;;;;;;;;;;;20.30;65.10;;;;;;492440;242;1196;-44
2021/07/13 07:14:41;;;;;;;;;;;20.40;65.10;;;;;;492399;242;1094;-44
2021/07/13 07:16:43;;;;;;;;;;;20.30;65.10;;;;;;492411;242;1639;-44
2021/07/13 07:18:44;;;;;;;;;;;20.40;65.10;;;;;;492451;242;2183;-44
2021/07/13 07:20:45;;;;;;;;;;;20.30;65.20;;;;;;492462;241;1316;-43
2021/07/13 07:22:47;;;;;;;;;;;20.30;65.20;;;;;;492551;242;1259;-43
2021/07/13 07:24:48;;;;;;;;;;;20.30;65.20;;;;;;492402;242;1194;-44
2021/07/13 07:26:50;;;;;;;;;;;20.30;65.10;;;;;;492342;242;1270;-43
2021/07/13 07:28:51;;;;;;;;;;;20.30;65.20;;;;;;492432;242;1102;-43
2021/07/13 07:30:52;;;;;;;;;;;20.30;65.10;;;;;;492316;237;1176;-43
2021/07/13 07:32:54;;;;;;;;;;;20.40;65.10;;;;;;492386;242;1192;-43
2021/07/13 07:34:55;;;;;;;;;;;20.40;65.10;;;;;;492431;242;1083;-43
2021/07/13 07:36:56;;;;;;;;;;;20.40;65.10;;;;;;492549;242;1282;-43
2021/07/13 07:38:57;;;;;;;;;;;20.30;65.00;;;;;;492507;242;2184;-44
2021/07/13 07:40:59;;;;;;;;;;;20.30;65.00;;;;;;492466;242;1099;-44
2021/07/13 07:43:00;;;;;;;;;;;20.30;65.10;;;;;;492442;242;1160;-43
2021/07/13 07:45:02;;;;;;;;;;;20.30;65.10;;;;;;492376;242;1129;-43
2021/07/13 07:47:03;;;;;;;;;;;20.30;65.20;;;;;;492199;242;1305;-43
2021/07/13 07:49:04;;;;;;;;;;;20.30;65.10;;;;;;492270;242;1309;-43
2021/07/13 07:51:05;;;;;;;;;;;20.30;65.10;;;;;;492393;242;1230;-44
2021/07/13 07:53:07;;;;;;;;;;;20.30;65.20;;;;;;492530;242;1159;-43
2021/07/13 07:55:08;;;;;;;;;;;20.30;65.30;;;;;;492346;242;1125;-44
2021/07/13 07:57:09;;;;;;;;;;;20.30;65.30;;;;;;492411;242;1128;-43
2021/07/13 07:59:11;;;;;;;;;;;20.30;65.30;;;;;;492344;242;2207;-44
2021/07/13 08:01:12;;;;;;;;;;;20.30;65.10;;;;;;492255;242;1247;-43
2021/07/13 08:03:13;;;;;;;;;;;20.30;65.20;;;;;;492434;242;1164;-44
2021/07/13 08:05:15;;;;;;;;;;;20.30;65.20;;;;;;492580;242;1109;-43
2021/07/13 08:07:18;;;;;;;;;;;20.40;65.10;;;;;;492456;242;1225;-43
2021/07/13 08:09:17;;;;;;;;;;;20.40;65.10;;;;;;492326;242;1964;-43
2021/07/13 08:11:19;;;;;;;;;;;20.30;65.10;;;;;;492327;242;1774;-44
2021/07/13 08:13:20;;;;;;;;;;;20.30;65.20;;;;;;492381;242;1062;-43
2021/07/13 08:15:21;;;;;;;;;;;20.30;65.30;;;;;;492276;242;1340;-43
2021/07/13 08:17:23;;;;;;;;;;;20.30;65.30;;;;;;492398;242;2187;-43
2021/07/13 08:19:24;;;;;;;;;;;20.30;65.20;;;;;;492452;242;1171;-43
2021/07/13 08:21:25;;;;;;;;;;;20.30;65.30;;;;;;492468;242;1364;-43
2021/07/13 08:23:26;;;;;;;;;;;20.30;65.30;;;;;;492479;242;1098;-43
2021/07/13 08:25:28;;;;;;;;;;;20.30;65.40;;;;;;492427;242;1195;-43
2021/07/13 08:27:29;;;;;;;;;;;20.30;65.30;;;;;;492289;242;1304;-43
2021/07/13 08:29:30;;;;;;;;;;;20.30;65.30;;;;;;492240;242;1083;-44
2021/07/13 08:31:32;;;;;;;;;;;20.30;65.30;;;;;;492432;242;1119;-43
2021/07/13 08:33:33;;;;;;;;;;;20.30;65.40;;;;;;492522;242;1329;-44
2021/07/13 08:35:35;;;;;;;;;;;20.30;65.20;;;;;;492337;242;1081;-44
2021/07/13 08:37:36;;;;;;;;;;;20.30;65.20;;;;;;492309;242;2196;-44
2021/07/13 08:39:37;;;;;;;;;;;20.30;65.10;;;;;;492533;242;1218;-44
2021/07/13 08:41:39;;;;;;;;;;;20.40;65.10;;;;;;492378;242;1276;-44
2021/07/13 08:43:40;;;;;;;;;;;20.40;65.10;;;;;;492511;242;1142;-43
2021/07/13 08:45:41;;;;;;;;;;;20.40;65.20;;;;;;492442;242;1188;-43
2021/07/13 08:47:43;;;;;;;;;;;20.30;65.10;;;;;;492367;242;1185;-43
2021/07/13 08:49:44;;;;;;;;;;;20.30;65.10;;;;;;492127;242;1070;-44
2021/07/13 08:51:47;;;;;;;;;;;20.30;65.20;;;;;;492191;242;1299;-44
2021/07/13 08:53:47;;;;;;;;;;;20.30;65.10;;;;;;492058;242;2385;-44
2021/07/13 08:55:48;;;;;;;;;;;20.30;65.10;;;;;;492314;242;1362;-44
2021/07/13 08:57:49;;;;;;;;;;;20.40;65.20;;;;;;492127;242;2195;-43
2021/07/13 08:59:51;;;;;;;;;;;20.30;65.10;;;;;;492195;242;1152;-43
2021/07/13 09:01:52;;;;;;;;;;;20.40;65.20;;;;;;492175;242;1351;-44
2021/07/13 09:03:54;;;;;;;;;;;20.40;65.10;;;;;;492250;242;1216;-43
2021/07/13 09:05:56;;;;;;;;;;;20.40;65.10;;;;;;492812;242;1369;-44
2021/07/13 09:07:58;;;;;;;;;;;20.30;65.20;;;;;;493113;242;1108;-43
2021/07/13 09:09:59;;;;;;;;;;;20.30;65.30;;;;;;492822;242;1106;-43
2021/07/13 09:12:00;;;;;;;;;;;20.30;65.20;;;;;;492499;242;1398;-43
2021/07/13 09:14:02;;;;;;;;;;;20.30;65.30;;;;;;492999;242;927;-44
2021/07/13 09:16:03;;;;;;;;;;;20.30;65.30;;;;;;492490;242;1090;-43
2021/07/13 09:18:04;;;;;;;;;;;20.20;65.30;;;;;;492320;242;2191;-43
2021/07/13 09:20:06;;;;;;;;;;;20.30;65.30;;;;;;492280;242;1205;-43
2021/07/13 09:22:07;;;;;;;;;;;20.30;65.30;;;;;;492343;242;1388;-44
2021/07/13 09:24:08;;;;;;;;;;;20.30;65.30;;;;;;492252;242;1097;-43
2021/07/13 09:26:10;;;;;;;;;;;20.30;65.30;;;;;;492425;242;1183;-43
2021/07/13 09:28:11;;;;;;;;;;;20.30;65.30;;;;;;493155;242;877;-43
2021/07/13 09:30:12;;;;;;;;;;;20.30;65.30;;;;;;492345;242;1105;-43
2021/07/13 09:32:14;;;;;;;;;;;20.30;65.30;;;;;;492370;242;1197;-43
2021/07/13 09:34:15;;;;;;;;;;;20.30;65.30;;;;;;492450;241;1258;-43
2021/07/13 09:36:16;;;;;;;;;;;20.30;65.30;;;;;;492242;242;1638;-43
2021/07/13 09:38:17;;;;;;;;;;;20.30;65.20;;;;;;492456;242;2217;-43
2021/07/13 09:40:19;;;;;;;;;;;20.30;65.30;;;;;;492476;242;1290;-43
2021/07/13 09:42:20;;;;;;;;;;;20.30;65.20;;;;;;492409;242;1127;-43
2021/07/13 09:44:21;;;;;;;;;;;20.30;65.20;;;;;;492618;242;1096;-43
2021/07/13 09:46:23;;;;;;;;;;;20.30;65.20;;;;;;492314;242;1205;-43
2021/07/13 09:48:24;;;;;;;;;;;20.30;65.30;;;;;;492594;242;1055;-44
2021/07/13 09:50:25;;;;;;;;;;;20.30;65.20;;;;;;492418;242;1300;-43
2021/07/13 09:52:27;;;;;;;;;;;20.30;65.20;;;;;;492251;242;1077;-43
2021/07/13 09:54:29;;;;;;;;;;;20.30;65.30;;;;;;491969;242;1099;-44
2021/07/13 09:56:31;;;;;;;;;;;20.30;65.30;;;;;;492483;242;1279;-43
2021/07/13 09:58:32;;;;;;;;;;;20.30;65.20;;;;;;492558;242;2187;-43
2021/07/13 10:00:33;;;;;;;;;;;20.30;65.30;;;;;;492199;242;1117;-43
2021/07/13 10:02:35;;;;;;;;;;;20.30;65.30;;;;;;492017;242;1116;-44
2021/07/13 10:04:36;;;;;;;;;;;20.30;65.40;;;;;;492127;242;1116;-43
2021/07/13 10:06:37;;;;;;;;;;;20.30;65.20;;;;;;492199;242;1358;-43
2021/07/13 10:08:39;;;;;;;;;;;20.30;65.30;;;;;;492232;242;1235;-43
2021/07/13 10:10:40;;;;;;;;;;;20.30;65.30;;;;;;492209;242;1210;-43
2021/07/13 10:12:41;;;;;;;;;;;20.30;65.30;;;;;;492358;242;1274;-43
2021/07/13 10:14:42;;;;;;;;;;;20.30;65.30;;;;;;492306;242;1141;-43
2021/07/13 10:16:44;;;;;;;;;;;20.30;65.20;;;;;;492311;242;1241;-43
2021/07/13 10:18:45;;;;;;;;;;;20.30;65.20;;;;;;492340;242;2182;-43
2021/07/13 10:20:46;;;;;;;;;;;20.30;65.10;;;;;;492268;242;1096;-43
2021/07/13 10:22:48;;;;;;;;;;;20.40;65.10;;;;;;492511;242;1182;-43
2021/07/13 10:24:49;;;;;;;;;;;20.40;65.10;;;;;;492291;242;1061;-43
2021/07/13 10:26:51;;;;;;;;;;;20.40;65.20;;;;;;492472;242;1268;-43
2021/07/13 10:28:52;;;;;;;;;;;20.40;65.20;;;;;;492813;242;1105;-43
2021/07/13 10:30:56;;;;;;;;;;;20.40;65.10;;;;;;492391;242;1250;-44
2021/07/13 10:32:56;;;;;;;;;;;20.30;65.20;;;;;;492178;242;2268;-43
2021/07/13 10:34:57;;;;;;;;;;;20.30;65.20;;;;;;492440;242;1372;-44
2021/07/13 10:36:59;;;;;;;;;;;20.40;65.30;;;;;;492232;242;1158;-43
2021/07/13 10:39:00;;;;;;;;;;;20.40;65.20;;;;;;492302;242;2192;-44
2021/07/13 10:41:01;;;;;;;;;;;20.30;65.30;;;;;;492227;242;1246;-43
2021/07/13 10:43:03;;;;;;;;;;;20.30;65.30;;;;;;492269;242;1219;-43
2021/07/13 10:45:04;;;;;;;;;;;20.30;65.40;;;;;;492216;241;1135;-43
2021/07/13 10:47:05;;;;;;;;;;;20.30;65.30;;;;;;492189;242;1280;-44
2021/07/13 10:49:06;;;;;;;;;;;20.30;65.20;;;;;;492289;242;1139;-44
2021/07/13 10:51:08;;;;;;;;;;;20.30;65.30;;;;;;492192;242;1237;-43
2021/07/13 10:53:09;;;;;;;;;;;20.30;65.20;;;;;;492341;242;1112;-43
2021/07/13 10:55:10;;;;;;;;;;;20.40;65.30;;;;;;492348;242;1096;-43
2021/07/13 10:57:12;;;;;;;;;;;20.30;65.30;;;;;;492347;242;1396;-43
2021/07/13 10:59:13;;;;;;;;;;;20.30;65.30;;;;;;492582;242;2184;-44
2021/07/13 11:01:15;;;;;;;;;;;20.30;65.30;;;;;;492813;242;1193;-43
2021/07/13 11:03:16;;;;;;;;;;;20.30;65.30;;;;;;492389;242;1147;-43
2021/07/13 11:05:17;;;;;;;;;;;20.30;65.20;;;;;;492392;242;1109;-44
2021/07/13 11:07:19;;;;;;;;;;;20.30;65.20;;;;;;492217;242;1179;-44
2021/07/13 11:09:20;;;;;;;;;;;20.30;65.10;;;;;;492335;242;1141;-44
2021/07/13 11:11:21;;;;;;;;;;;20.30;65.20;;;;;;492175;242;1249;-44
2021/07/13 11:13:23;;;;;;;;;;;20.30;65.30;;;;;;492253;242;1180;-43
2021/07/13 11:15:24;;;;;;;;;;;20.30;65.20;;;;;;492344;242;1169;-43
2021/07/13 11:17:25;;;;;;;;;;;20.30;65.30;;;;;;492526;242;1171;-44
2021/07/13 11:19:27;;;;;;;;;;;20.30;65.30;;;;;;492454;242;2198;-44
2021/07/13 11:21:28;;;;;;;;;;;20.30;65.30;;;;;;492460;242;1319;-44
2021/07/13 11:23:29;;;;;;;;;;;20.30;65.30;;;;;;492530;242;1192;-43
2021/07/13 11:25:33;;;;;;;;;;;20.30;65.40;;;;;;492408;242;1082;-43
2021/07/13 11:27:35;;;;;;;;;;;20.30;65.40;;;;;;492041;242;2166;-43
2021/07/13 11:29:34;;;;;;;;;;;20.30;65.40;;;;;;492246;242;1910;-43
2021/07/13 11:31:35;;;;;;;;;;;20.30;65.40;;;;;;492239;242;1472;-44
2021/07/13 11:33:37;;;;;;;;;;;20.30;65.40;;;;;;492402;242;1137;-44
2021/07/13 11:35:40;;;;;;;;;;;20.30;65.40;;;;;;492337;242;1122;-43
2021/07/13 11:37:40;;;;;;;;;;;20.30;65.40;;;;;;492458;241;1915;-43
2021/07/13 11:39:42;;;;;;;;;;;20.40;65.40;;;;;;492220;242;2176;-43
2021/07/13 11:41:43;;;;;;;;;;;20.30;65.30;;;;;;492272;242;1393;-44
2021/07/13 11:43:44;;;;;;;;;;;20.30;65.30;;;;;;492211;242;1118;-44
2021/07/13 11:45:46;;;;;;;;;;;20.30;65.30;;;;;;492370;242;1137;-43
2021/07/13 11:47:47;;;;;;;;;;;20.30;65.30;;;;;;492319;242;1245;-43
2021/07/13 11:49:48;;;;;;;;;;;20.30;65.40;;;;;;492282;242;1209;-43
2021/07/13 11:51:50;;;;;;;;;;;20.30;65.40;;;;;;492323;242;1229;-43
2021/07/13 11:53:51;;;;;;;;;;;20.30;65.40;;;;;;492744;242;847;-44
2021/07/13 11:55:52;;;;;;;;;;;20.30;65.40;;;;;;492413;242;1194;-43
2021/07/13 11:57:54;;;;;;;;;;;20.30;65.40;;;;;;492328;242;1392;-43